sensor_id;sensor_type;location;lat;lon;timestamp;pressure;altitude;pressure_sealevel;temperature;humidity
59409;BME280;45213;32.654;-115.458;2023-01-30T00:01:16;101049.28;;;19.76;32.12
59409;BME280;45213;32.654;-115.458;2023-01-30T00:03:43;101046.34;;;19.51;31.70
59409;BME280;45213;32.654;-115.458;2023-01-30T00:06:10;101035.41;;;19.29;32.31
59409;BME280;45213;32.654;-115.458;2023-01-30T00:08:37;101040.38;;;19.43;31.76
59409;BME280;45213;32.654;-115.458;2023-01-30T00:11:06;101049.78;;;19.53;31.73
59409;BME280;45213;32.654;-115.458;2023-01-30T00:13:33;101052.66;;;19.05;32.28
59409;BME280;45213;32.654;-115.458;2023-01-30T00:16:00;101055.34;;;19.03;32.31
59409;BME280;45213;32.654;-115.458;2023-01-30T00:18:27;101051.69;;;19.09;32.40
59409;BME280;45213;32.654;-115.458;2023-01-30T00:20:58;101053.91;;;18.87;33.03
59409;BME280;45213;32.654;-115.458;2023-01-30T00:23:27;101056.31;;;18.97;32.77
59409;BME280;45213;32.654;-115.458;2023-01-30T00:25:54;101058.84;;;19.80;31.59
59409;BME280;45213;32.654;-115.458;2023-01-30T00:28:21;101056.97;;;20.19;30.64
59409;BME280;45213;32.654;-115.458;2023-01-30T00:30:52;101063.06;;;20.54;30.09
59409;BME280;45213;32.654;-115.458;2023-01-30T00:33:20;101069.59;;;20.41;30.42
59409;BME280;45213;32.654;-115.458;2023-01-30T00:35:52;101056.59;;;19.63;31.66
59409;BME280;45213;32.654;-115.458;2023-01-30T00:38:19;101067.84;;;19.73;31.80
59409;BME280;45213;32.654;-115.458;2023-01-30T00:40:47;101070.00;;;19.55;32.50
59409;BME280;45213;32.654;-115.458;2023-01-30T00:43:17;101067.69;;;18.09;34.71
59409;BME280;45213;32.654;-115.458;2023-01-30T00:46:04;101078.25;;;17.52;35.95
59409;BME280;45213;32.654;-115.458;2023-01-30T00:48:49;101085.63;;;17.25;36.02
59409;BME280;45213;32.654;-115.458;2023-01-30T00:51:16;101078.66;;;17.23;36.45
59409;BME280;45213;32.654;-115.458;2023-01-30T00:53:42;101083.91;;;17.23;36.39
59409;BME280;45213;32.654;-115.458;2023-01-30T00:56:09;101082.41;;;17.05;36.38
59409;BME280;45213;32.654;-115.458;2023-01-30T00:58:35;101081.66;;;16.95;37.14
59409;BME280;45213;32.654;-115.458;2023-01-30T01:01:02;101087.97;;;16.80;37.77
59409;BME280;45213;32.654;-115.458;2023-01-30T01:03:29;101085.41;;;16.74;38.06
59409;BME280;45213;32.654;-115.458;2023-01-30T01:05:56;101082.81;;;16.68;38.21
59409;BME280;45213;32.654;-115.458;2023-01-30T01:08:22;101078.53;;;16.58;38.37
59409;BME280;45213;32.654;-115.458;2023-01-30T01:10:49;101086.38;;;16.65;38.44
59409;BME280;45213;32.654;-115.458;2023-01-30T01:13:16;101076.88;;;16.52;38.42
59409;BME280;45213;32.654;-115.458;2023-01-30T01:15:42;101081.22;;;16.55;38.63
59409;BME280;45213;32.654;-115.458;2023-01-30T01:18:09;101076.09;;;16.41;38.45
59409;BME280;45213;32.654;-115.458;2023-01-30T01:20:35;101079.69;;;16.35;38.63
59409;BME280;45213;32.654;-115.458;2023-01-30T01:23:02;101076.19;;;16.33;38.14
59409;BME280;45213;32.654;-115.458;2023-01-30T01:25:29;101085.81;;;16.33;38.20
59409;BME280;45213;32.654;-115.458;2023-01-30T01:27:55;101091.97;;;16.33;38.70
59409;BME280;45213;32.654;-115.458;2023-01-30T01:30:23;101094.63;;;16.28;38.04
59409;BME280;45213;32.654;-115.458;2023-01-30T01:32:49;101094.66;;;16.25;38.04
59409;BME280;45213;32.654;-115.458;2023-01-30T01:35:16;101096.44;;;16.22;38.39
59409;BME280;45213;32.654;-115.458;2023-01-30T01:37:45;101090.38;;;16.14;38.56
59409;BME280;45213;32.654;-115.458;2023-01-30T01:40:17;101094.78;;;16.12;38.75
59409;BME280;45213;32.654;-115.458;2023-01-30T01:43:23;101095.72;;;16.04;38.36
59409;BME280;45213;32.654;-115.458;2023-01-30T01:46:01;101099.25;;;16.00;38.78
59409;BME280;45213;32.654;-115.458;2023-01-30T01:48:35;101097.53;;;15.96;38.29
59409;BME280;45213;32.654;-115.458;2023-01-30T01:51:15;101099.34;;;15.91;38.77
59409;BME280;45213;32.654;-115.458;2023-01-30T01:54:16;101101.16;;;15.83;38.70
59409;BME280;45213;32.654;-115.458;2023-01-30T01:56:43;101100.34;;;15.75;38.97
59409;BME280;45213;32.654;-115.458;2023-01-30T01:59:29;101095.09;;;15.70;38.81
59409;BME280;45213;32.654;-115.458;2023-01-30T02:02:02;101103.88;;;15.71;39.05
59409;BME280;45213;32.654;-115.458;2023-01-30T02:04:31;101105.63;;;15.65;39.24
59409;BME280;45213;32.654;-115.458;2023-01-30T02:07:18;101101.25;;;15.61;40.03
59409;BME280;45213;32.654;-115.458;2023-01-30T02:09:48;101109.16;;;15.60;40.62
59409;BME280;45213;32.654;-115.458;2023-01-30T02:12:15;101104.84;;;15.48;41.40
59409;BME280;45213;32.654;-115.458;2023-01-30T02:14:42;101111.03;;;15.41;42.21
59409;BME280;45213;32.654;-115.458;2023-01-30T02:17:12;101107.59;;;15.30;43.82
59409;BME280;45213;32.654;-115.458;2023-01-30T02:19:56;101109.34;;;15.31;44.65
59409;BME280;45213;32.654;-115.458;2023-01-30T02:25:39;101107.69;;;15.08;45.68
59409;BME280;45213;32.654;-115.458;2023-01-30T02:34:02;101117.38;;;14.91;45.27
59409;BME280;45213;32.654;-115.458;2023-01-30T02:36:37;101121.72;;;14.92;45.46
59409;BME280;45213;32.654;-115.458;2023-01-30T02:39:25;101117.38;;;14.97;44.99
59409;BME280;45213;32.654;-115.458;2023-01-30T02:42:22;101115.63;;;14.93;44.81
59409;BME280;45213;32.654;-115.458;2023-01-30T02:45:01;101116.47;;;14.92;44.06
59409;BME280;45213;32.654;-115.458;2023-01-30T02:48:08;101112.97;;;14.96;44.24
59409;BME280;45213;32.654;-115.458;2023-01-30T02:50:49;101115.66;;;14.80;44.03
59409;BME280;45213;32.654;-115.458;2023-01-30T02:53:18;101116.53;;;14.81;44.30
59409;BME280;45213;32.654;-115.458;2023-01-30T02:55:45;101123.53;;;14.71;44.96
59409;BME280;45213;32.654;-115.458;2023-01-30T02:58:14;101121.81;;;14.69;45.56
59409;BME280;45213;32.654;-115.458;2023-01-30T03:11:52;101131.44;;;14.45;46.94
59409;BME280;45213;32.654;-115.458;2023-01-30T03:17:20;101148.91;;;14.35;48.19
59409;BME280;45213;32.654;-115.458;2023-01-30T03:19:52;101145.41;;;14.27;48.23
59409;BME280;45213;32.654;-115.458;2023-01-30T03:22:21;101150.66;;;14.30;48.80
59409;BME280;45213;32.654;-115.458;2023-01-30T03:24:50;101152.38;;;14.28;49.01
59409;BME280;45213;32.654;-115.458;2023-01-30T03:27:19;101155.00;;;14.19;49.23
59409;BME280;45213;32.654;-115.458;2023-01-30T03:29:46;101168.13;;;14.16;49.73
59409;BME280;45213;32.654;-115.458;2023-01-30T03:32:14;101167.25;;;14.11;50.36
59409;BME280;45213;32.654;-115.458;2023-01-30T03:34:40;101164.59;;;13.98;50.84
59409;BME280;45213;32.654;-115.458;2023-01-30T03:37:07;101175.09;;;14.11;50.72
59409;BME280;45213;32.654;-115.458;2023-01-30T03:39:35;101174.22;;;13.99;51.51
59409;BME280;45213;32.654;-115.458;2023-01-30T03:42:05;101168.97;;;13.95;51.66
59409;BME280;45213;32.654;-115.458;2023-01-30T03:44:31;101171.59;;;13.93;51.94
59409;BME280;45213;32.654;-115.458;2023-01-30T03:46:58;101175.09;;;13.91;52.20
59409;BME280;45213;32.654;-115.458;2023-01-30T03:49:25;101159.34;;;13.85;52.57
59409;BME280;45213;32.654;-115.458;2023-01-30T03:51:52;101167.22;;;13.86;52.56
59409;BME280;45213;32.654;-115.458;2023-01-30T03:54:18;101171.59;;;14.03;52.34
59409;BME280;45213;32.654;-115.458;2023-01-30T03:56:46;101169.84;;;14.05;51.97
59409;BME280;45213;32.654;-115.458;2023-01-30T03:59:12;101166.34;;;13.87;52.18
59409;BME280;45213;32.654;-115.458;2023-01-30T04:01:47;101176.81;;;13.84;52.79
59409;BME280;45213;32.654;-115.458;2023-01-30T04:04:13;101171.59;;;13.90;52.97
59409;BME280;45213;32.654;-115.458;2023-01-30T04:06:41;101182.09;;;13.99;52.22
59409;BME280;45213;32.654;-115.458;2023-01-30T04:09:08;101180.34;;;13.92;53.49
59409;BME280;45213;32.654;-115.458;2023-01-30T04:11:44;101182.06;;;13.81;53.61
59409;BME280;45213;32.654;-115.458;2023-01-30T04:14:11;101188.13;;;13.71;53.55
59409;BME280;45213;32.654;-115.458;2023-01-30T04:16:58;101195.13;;;13.75;54.18
59409;BME280;45213;32.654;-115.458;2023-01-30T04:19:43;101189.84;;;13.61;54.56
59409;BME280;45213;32.654;-115.458;2023-01-30T04:22:11;101196.81;;;13.59;54.65
59409;BME280;45213;32.654;-115.458;2023-01-30T04:24:38;101197.69;;;13.60;53.97
59409;BME280;45213;32.654;-115.458;2023-01-30T04:27:05;101196.81;;;13.56;53.80
59409;BME280;45213;32.654;-115.458;2023-01-30T04:29:37;101202.00;;;13.48;54.03
59409;BME280;45213;32.654;-115.458;2023-01-30T04:32:07;101193.31;;;13.57;54.08
59409;BME280;45213;32.654;-115.458;2023-01-30T04:34:36;101191.56;;;13.47;53.93
59409;BME280;45213;32.654;-115.458;2023-01-30T04:37:02;101194.16;;;13.48;53.96
59409;BME280;45213;32.654;-115.458;2023-01-30T04:39:30;101198.53;;;13.51;53.99
59409;BME280;45213;32.654;-115.458;2023-01-30T04:41:56;101202.00;;;13.42;54.04
59409;BME280;45213;32.654;-115.458;2023-01-30T04:44:23;101208.13;;;13.47;53.78
59409;BME280;45213;32.654;-115.458;2023-01-30T04:47:22;101207.28;;;13.51;53.47
59409;BME280;45213;32.654;-115.458;2023-01-30T04:49:49;101196.78;;;13.45;53.74
59409;BME280;45213;32.654;-115.458;2023-01-30T04:52:16;101198.50;;;13.43;53.49
59409;BME280;45213;32.654;-115.458;2023-01-30T04:54:42;101201.13;;;13.43;53.23
59409;BME280;45213;32.654;-115.458;2023-01-30T04:57:09;101198.50;;;13.43;52.73
59409;BME280;45213;32.654;-115.458;2023-01-30T04:59:36;101206.38;;;13.52;52.61
59409;BME280;45213;32.654;-115.458;2023-01-30T05:02:07;101200.31;;;13.64;52.43
59409;BME280;45213;32.654;-115.458;2023-01-30T05:04:34;101194.22;;;13.61;52.64
59409;BME280;45213;32.654;-115.458;2023-01-30T05:07:00;101201.16;;;13.55;52.80
59409;BME280;45213;32.654;-115.458;2023-01-30T05:09:27;101208.13;;;13.55;53.06
59409;BME280;45213;32.654;-115.458;2023-01-30T05:11:53;101208.16;;;13.56;52.16
59409;BME280;45213;32.654;-115.458;2023-01-30T05:14:20;101209.00;;;13.57;52.75
59409;BME280;45213;32.654;-115.458;2023-01-30T05:16:46;101214.25;;;13.54;52.69
59409;BME280;45213;32.654;-115.458;2023-01-30T05:19:13;101209.88;;;13.51;52.11
59409;BME280;45213;32.654;-115.458;2023-01-30T05:21:40;101201.16;;;13.52;51.93
59409;BME280;45213;32.654;-115.458;2023-01-30T05:24:06;101213.34;;;13.53;51.95
59409;BME280;45213;32.654;-115.458;2023-01-30T05:26:33;101213.31;;;13.44;51.89
59409;BME280;45213;32.654;-115.458;2023-01-30T05:28:59;101210.69;;;13.40;52.51
59409;BME280;45213;32.654;-115.458;2023-01-30T05:31:27;101215.91;;;13.40;52.71
59409;BME280;45213;32.654;-115.458;2023-01-30T05:33:54;101215.94;;;13.46;52.50
59409;BME280;45213;32.654;-115.458;2023-01-30T05:36:21;101218.56;;;13.44;52.96
59409;BME280;45213;32.654;-115.458;2023-01-30T05:38:48;101221.19;;;13.43;53.28
59409;BME280;45213;32.654;-115.458;2023-01-30T05:41:15;101215.94;;;13.44;52.96
59409;BME280;45213;32.654;-115.458;2023-01-30T05:43:43;101218.44;;;13.26;53.50
59409;BME280;45213;32.654;-115.458;2023-01-30T05:46:11;101215.84;;;13.27;53.39
59409;BME280;45213;32.654;-115.458;2023-01-30T05:48:38;101219.41;;;13.34;53.79
59409;BME280;45213;32.654;-115.458;2023-01-30T05:51:06;101218.44;;;13.24;53.38
59409;BME280;45213;32.654;-115.458;2023-01-30T05:53:32;101219.25;;;13.17;54.13
59409;BME280;45213;32.654;-115.458;2023-01-30T05:56:02;101218.38;;;13.12;53.86
59409;BME280;45213;32.654;-115.458;2023-01-30T05:58:29;101234.06;;;13.13;54.16
59409;BME280;45213;32.654;-115.458;2023-01-30T06:01:00;101228.84;;;13.13;53.74
59409;BME280;45213;32.654;-115.458;2023-01-30T06:03:27;101232.31;;;13.12;54.59
59409;BME280;45213;32.654;-115.458;2023-01-30T06:05:54;101234.00;;;13.03;54.58
59409;BME280;45213;32.654;-115.458;2023-01-30T06:08:21;101240.94;;;12.96;55.35
59409;BME280;45213;32.654;-115.458;2023-01-30T06:10:47;101237.41;;;12.88;56.30
59409;BME280;45213;32.654;-115.458;2023-01-30T06:13:14;101232.13;;;12.82;55.94
59409;BME280;45213;32.654;-115.458;2023-01-30T06:15:41;101232.94;;;12.70;55.94
59409;BME280;45213;32.654;-115.458;2023-01-30T06:18:07;101238.16;;;12.71;56.33
59409;BME280;45213;32.654;-115.458;2023-01-30T06:20:34;101242.44;;;12.63;56.24
59409;BME280;45213;32.654;-115.458;2023-01-30T06:23:00;101236.31;;;12.57;57.54
59409;BME280;45213;32.654;-115.458;2023-01-30T06:25:27;101242.34;;;12.52;57.49
59409;BME280;45213;32.654;-115.458;2023-01-30T06:27:53;101240.59;;;12.47;57.72
59409;BME280;45213;32.654;-115.458;2023-01-30T06:30:20;101247.53;;;12.45;57.44
59409;BME280;45213;32.654;-115.458;2023-01-30T06:32:49;101244.91;;;12.45;57.02
59409;BME280;45213;32.654;-115.458;2023-01-30T06:35:16;101248.41;;;12.48;57.50
59409;BME280;45213;32.654;-115.458;2023-01-30T06:37:44;101255.31;;;12.42;57.20
59409;BME280;45213;32.654;-115.458;2023-01-30T06:40:11;101263.94;;;12.33;57.43
59409;BME280;45213;32.654;-115.458;2023-01-30T06:42:43;101264.78;;;12.27;58.24
59409;BME280;45213;32.654;-115.458;2023-01-30T06:45:10;101262.91;;;12.17;58.13
59409;BME280;45213;32.654;-115.458;2023-01-30T06:47:51;101272.44;;;12.12;57.85
59409;BME280;45213;32.654;-115.458;2023-01-30T06:50:21;101276.56;;;11.91;58.71
59409;BME280;45213;32.654;-115.458;2023-01-30T06:52:49;101284.44;;;11.93;58.65
59409;BME280;45213;32.654;-115.458;2023-01-30T06:55:18;101282.00;;;12.10;58.31
59409;BME280;45213;32.654;-115.458;2023-01-30T06:57:45;101282.00;;;12.11;58.16
59409;BME280;45213;32.654;-115.458;2023-01-30T07:00:17;101276.78;;;12.10;58.48
59409;BME280;45213;32.654;-115.458;2023-01-30T07:02:45;101277.50;;;11.97;58.67
59409;BME280;45213;32.654;-115.458;2023-01-30T07:05:12;101282.75;;;12.00;58.80
59409;BME280;45213;32.654;-115.458;2023-01-30T07:07:39;101279.25;;;11.98;58.58
59409;BME280;45213;32.654;-115.458;2023-01-30T07:10:07;101280.22;;;12.07;58.54
59409;BME280;45213;32.654;-115.458;2023-01-30T07:12:34;101277.69;;;12.14;56.97
59409;BME280;45213;32.654;-115.458;2023-01-30T07:15:02;101282.75;;;12.01;57.00
59409;BME280;45213;32.654;-115.458;2023-01-30T07:17:28;101300.25;;;12.07;57.94
59409;BME280;45213;32.654;-115.458;2023-01-30T07:19:55;101295.78;;;11.98;57.71
59409;BME280;45213;32.654;-115.458;2023-01-30T07:22:22;101297.44;;;11.90;58.49
59409;BME280;45213;32.654;-115.458;2023-01-30T07:24:49;101296.59;;;11.94;60.02
59409;BME280;45213;32.654;-115.458;2023-01-30T07:27:15;101295.81;;;12.00;58.53
59409;BME280;45213;32.654;-115.458;2023-01-30T07:29:42;101294.84;;;11.90;58.54
59409;BME280;45213;32.654;-115.458;2023-01-30T07:32:15;101297.44;;;11.90;59.47
59409;BME280;45213;32.654;-115.458;2023-01-30T07:34:42;101300.69;;;11.75;58.84
59409;BME280;45213;32.654;-115.458;2023-01-30T07:37:08;101305.84;;;11.69;59.34
59409;BME280;45213;32.654;-115.458;2023-01-30T07:39:35;101291.09;;;11.73;60.21
59409;BME280;45213;32.654;-115.458;2023-01-30T07:42:02;101314.53;;;11.68;60.26
59409;BME280;45213;32.654;-115.458;2023-01-30T07:44:29;101310.91;;;11.57;60.24
59409;BME280;45213;32.654;-115.458;2023-01-30T07:46:56;101306.53;;;11.54;60.94
59409;BME280;45213;32.654;-115.458;2023-01-30T07:49:22;101304.75;;;11.52;61.07
59409;BME280;45213;32.654;-115.458;2023-01-30T07:51:49;101295.41;;;11.67;61.06
59409;BME280;45213;32.654;-115.458;2023-01-30T07:54:16;101307.50;;;11.61;61.49
59409;BME280;45213;32.654;-115.458;2023-01-30T07:56:42;101310.69;;;11.41;61.98
59409;BME280;45213;32.654;-115.458;2023-01-30T07:59:10;101302.88;;;11.41;61.60
59409;BME280;45213;32.654;-115.458;2023-01-30T08:01:37;101309.06;;;11.49;61.71
59409;BME280;45213;32.654;-115.458;2023-01-30T08:04:03;101293.47;;;11.53;62.00
59409;BME280;45213;32.654;-115.458;2023-01-30T08:06:30;101299.66;;;11.62;62.12
59409;BME280;45213;32.654;-115.458;2023-01-30T08:08:57;101301.41;;;11.62;62.00
59409;BME280;45213;32.654;-115.458;2023-01-30T08:11:23;101296.09;;;11.54;61.98
59409;BME280;45213;32.654;-115.458;2023-01-30T08:13:50;101296.78;;;11.41;63.18
59409;BME280;45213;32.654;-115.458;2023-01-30T08:16:17;101302.88;;;11.41;63.35
59409;BME280;45213;32.654;-115.458;2023-01-30T08:18:43;101303.41;;;11.19;63.26
59409;BME280;45213;32.654;-115.458;2023-01-30T08:21:10;101299.97;;;11.20;63.29
59409;BME280;45213;32.654;-115.458;2023-01-30T08:23:37;101294.78;;;11.23;62.26
59409;BME280;45213;32.654;-115.458;2023-01-30T08:26:04;101295.59;;;11.19;62.73
59409;BME280;45213;32.654;-115.458;2023-01-30T08:28:31;101279.88;;;11.14;62.46
59409;BME280;45213;32.654;-115.458;2023-01-30T08:30:58;101283.22;;;11.05;63.63
59409;BME280;45213;32.654;-115.458;2023-01-30T08:33:25;101279.63;;;10.96;63.47
59409;BME280;45213;32.654;-115.458;2023-01-30T08:35:51;101277.22;;;11.10;63.53
59409;BME280;45213;32.654;-115.458;2023-01-30T08:38:18;101272.00;;;11.10;64.48
59409;BME280;45213;32.654;-115.458;2023-01-30T08:40:44;101278.00;;;11.04;63.96
59409;BME280;45213;32.654;-115.458;2023-01-30T08:43:11;101283.88;;;10.91;64.59
59409;BME280;45213;32.654;-115.458;2023-01-30T08:45:37;101281.34;;;10.95;64.26
59409;BME280;45213;32.654;-115.458;2023-01-30T08:48:05;101281.31;;;10.94;64.44
59409;BME280;45213;32.654;-115.458;2023-01-30T08:50:32;101289.06;;;10.89;64.75
59409;BME280;45213;32.654;-115.458;2023-01-30T08:53:07;101293.44;;;10.90;64.11
59409;BME280;45213;32.654;-115.458;2023-01-30T08:55:35;101293.31;;;10.82;64.57
59409;BME280;45213;32.654;-115.458;2023-01-30T08:58:01;101292.53;;;10.88;65.30
59409;BME280;45213;32.654;-115.458;2023-01-30T09:00:28;101289.78;;;10.79;64.61
59409;BME280;45213;32.654;-115.458;2023-01-30T09:02:56;101293.94;;;10.69;64.67
59409;BME280;45213;32.654;-115.458;2023-01-30T09:05:23;101290.34;;;10.62;65.21
59409;BME280;45213;32.654;-115.458;2023-01-30T09:07:50;101299.63;;;10.45;66.64
59409;BME280;45213;32.654;-115.458;2023-01-30T09:10:17;101303.84;;;10.40;66.52
59409;BME280;45213;32.654;-115.458;2023-01-30T09:12:43;101290.66;;;10.31;65.40
59409;BME280;45213;32.654;-115.458;2023-01-30T09:15:11;101307.41;;;10.43;66.28
59409;BME280;45213;32.654;-115.458;2023-01-30T09:17:38;101316.31;;;10.56;65.46
59409;BME280;45213;32.654;-115.458;2023-01-30T09:20:06;101322.53;;;10.64;64.86
59409;BME280;45213;32.654;-115.458;2023-01-30T09:22:33;101321.44;;;10.53;65.31
59409;BME280;45213;32.654;-115.458;2023-01-30T09:25:00;101323.16;;;10.51;65.76
59409;BME280;45213;32.654;-115.458;2023-01-30T09:27:26;101324.06;;;10.53;64.95
59409;BME280;45213;32.654;-115.458;2023-01-30T09:29:53;101318.56;;;10.36;65.69
59409;BME280;45213;32.654;-115.458;2023-01-30T09:32:19;101317.78;;;10.42;66.09
59409;BME280;45213;32.654;-115.458;2023-01-30T09:34:46;101319.50;;;10.41;65.63
59409;BME280;45213;32.654;-115.458;2023-01-30T09:37:13;101319.47;;;10.40;66.24
59409;BME280;45213;32.654;-115.458;2023-01-30T09:39:40;101316.94;;;10.44;66.49
59409;BME280;45213;32.654;-115.458;2023-01-30T09:42:25;101322.19;;;10.46;66.32
59409;BME280;45213;32.654;-115.458;2023-01-30T09:55:29;101328.66;;;10.21;66.32
59409;BME280;45213;32.654;-115.458;2023-01-30T09:57:58;101330.34;;;10.19;66.51
59409;BME280;45213;32.654;-115.458;2023-01-30T10:00:39;101327.78;;;10.20;66.68
59409;BME280;45213;32.654;-115.458;2023-01-30T10:05:55;101348.34;;;10.08;65.96
59409;BME280;45213;32.654;-115.458;2023-01-30T10:17:00;101355.13;;;10.00;67.17
59409;BME280;45213;32.654;-115.458;2023-01-30T10:30:45;101361.16;;;9.97;68.02
59409;BME280;45213;32.654;-115.458;2023-01-30T10:33:43;101360.19;;;9.94;68.51
59409;BME280;45213;32.654;-115.458;2023-01-30T10:39:24;101361.44;;;10.13;67.59
59409;BME280;45213;32.654;-115.458;2023-01-30T10:42:35;101361.25;;;10.02;67.44
59409;BME280;45213;32.654;-115.458;2023-01-30T10:45:15;101357.63;;;9.97;68.00
59409;BME280;45213;32.654;-115.458;2023-01-30T10:50:46;101356.94;;;10.04;68.54
59409;BME280;45213;32.654;-115.458;2023-01-30T10:53:25;101358.78;;;10.10;68.19
59409;BME280;45213;32.654;-115.458;2023-01-30T10:56:19;101363.91;;;10.05;67.96
59409;BME280;45213;32.654;-115.458;2023-01-30T10:59:21;101369.72;;;9.93;66.97
59409;BME280;45213;32.654;-115.458;2023-01-30T11:01:57;101373.31;;;9.59;67.98
59409;BME280;45213;32.654;-115.458;2023-01-30T11:04:44;101369.94;;;9.63;69.09
59409;BME280;45213;32.654;-115.458;2023-01-30T11:07:14;101370.34;;;9.81;69.35
59409;BME280;45213;32.654;-115.458;2023-01-30T11:09:46;101374.69;;;9.82;68.63
59409;BME280;45213;32.654;-115.458;2023-01-30T11:12:13;101373.88;;;9.85;68.95
59409;BME280;45213;32.654;-115.458;2023-01-30T11:17:18;101378.78;;;9.71;68.40
59409;BME280;45213;32.654;-115.458;2023-01-30T11:19:55;101382.19;;;9.69;68.64
59409;BME280;45213;32.654;-115.458;2023-01-30T11:22:24;101379.81;;;9.78;67.97
59409;BME280;45213;32.654;-115.458;2023-01-30T11:25:00;101377.84;;;9.68;68.09
59409;BME280;45213;32.654;-115.458;2023-01-30T11:27:32;101373.31;;;9.59;68.05
59409;BME280;45213;32.654;-115.458;2023-01-30T11:30:14;101375.53;;;9.42;68.79
59409;BME280;45213;32.654;-115.458;2023-01-30T11:32:41;101378.97;;;9.41;69.54
59409;BME280;45213;32.654;-115.458;2023-01-30T11:37:36;101381.03;;;9.56;68.86
59409;BME280;45213;32.654;-115.458;2023-01-30T11:43:11;101383.16;;;9.74;68.54
59409;BME280;45213;32.654;-115.458;2023-01-30T11:45:43;101376.44;;;9.82;68.31
59409;BME280;45213;32.654;-115.458;2023-01-30T11:48:16;101377.25;;;9.79;67.96
59409;BME280;45213;32.654;-115.458;2023-01-30T11:50:47;101390.19;;;9.78;67.74
59409;BME280;45213;32.654;-115.458;2023-01-30T11:54:17;101386.56;;;9.70;67.74
59409;BME280;45213;32.654;-115.458;2023-01-30T11:56:37;101385.50;;;9.61;68.56
59409;BME280;45213;32.654;-115.458;2023-01-30T12:05:04;101378.78;;;9.71;69.15
59409;BME280;45213;32.654;-115.458;2023-01-30T12:07:33;101383.16;;;9.72;69.50
59409;BME280;45213;32.654;-115.458;2023-01-30T12:12:53;101388.00;;;9.57;69.63
59409;BME280;45213;32.654;-115.458;2023-01-30T12:15:24;101388.78;;;9.53;70.35
59409;BME280;45213;32.654;-115.458;2023-01-30T12:20:48;101389.91;;;9.64;69.51
59409;BME280;45213;32.654;-115.458;2023-01-30T12:28:56;101392.53;;;9.66;69.36
59409;BME280;45213;32.654;-115.458;2023-01-30T12:33:57;101397.50;;;9.55;69.42
59409;BME280;45213;32.654;-115.458;2023-01-30T12:36:54;101406.25;;;9.58;70.05
59409;BME280;45213;32.654;-115.458;2023-01-30T12:45:25;101414.38;;;9.36;70.11
59409;BME280;45213;32.654;-115.458;2023-01-30T12:50:53;101417.28;;;9.48;70.35
59409;BME280;45213;32.654;-115.458;2023-01-30T13:02:51;101432.22;;;9.57;70.42
59409;BME280;45213;32.654;-115.458;2023-01-30T13:05:45;101434.88;;;9.60;70.08
59409;BME280;45213;32.654;-115.458;2023-01-30T13:11:16;101435.09;;;9.69;70.67
59409;BME280;45213;32.654;-115.458;2023-01-30T13:14:01;101423.19;;;9.80;71.04
59409;BME280;45213;32.654;-115.458;2023-01-30T13:16:49;101428.50;;;9.85;70.14
59409;BME280;45213;32.654;-115.458;2023-01-30T13:19:27;101430.09;;;9.78;69.87
59409;BME280;45213;32.654;-115.458;2023-01-30T13:22:16;101421.63;;;9.87;69.94
59409;BME280;45213;32.654;-115.458;2023-01-30T13:27:34;101422.47;;;9.86;70.13
59409;BME280;45213;32.654;-115.458;2023-01-30T13:30:03;101413.72;;;9.82;70.62
59409;BME280;45213;32.654;-115.458;2023-01-30T13:32:43;101414.28;;;9.69;69.82
59409;BME280;45213;32.654;-115.458;2023-01-30T13:35:20;101422.94;;;9.68;70.13
59409;BME280;45213;32.654;-115.458;2023-01-30T13:37:50;101430.78;;;9.71;70.11
59409;BME280;45213;32.654;-115.458;2023-01-30T13:40:21;101432.56;;;9.72;69.56
59409;BME280;45213;32.654;-115.458;2023-01-30T13:45:36;101429.13;;;9.73;69.66
59409;BME280;45213;32.654;-115.458;2023-01-30T13:51:14;101442.06;;;9.72;69.61
59409;BME280;45213;32.654;-115.458;2023-01-30T13:56:29;101450.84;;;9.75;69.46
59409;BME280;45213;32.654;-115.458;2023-01-30T14:10:32;101472.28;;;9.65;69.57
59409;BME280;45213;32.654;-115.458;2023-01-30T14:12:47;101464.50;;;9.65;70.08
59409;BME280;45213;32.654;-115.458;2023-01-30T14:18:18;101451.38;;;9.62;69.95
59409;BME280;45213;32.654;-115.458;2023-01-30T14:20:49;101442.66;;;9.60;70.51
59409;BME280;45213;32.654;-115.458;2023-01-30T14:23:20;101452.31;;;9.64;70.86
59409;BME280;45213;32.654;-115.458;2023-01-30T14:25:52;101449.75;;;9.66;70.27
59409;BME280;45213;32.654;-115.458;2023-01-30T14:30:54;101467.66;;;9.53;70.76
59409;BME280;45213;32.654;-115.458;2023-01-30T14:36:33;101458.88;;;9.48;70.41
59409;BME280;45213;32.654;-115.458;2023-01-30T14:38:36;101461.63;;;9.56;69.53
59409;BME280;45213;32.654;-115.458;2023-01-30T14:51:47;101454.69;;;9.55;70.65
59409;BME280;45213;32.654;-115.458;2023-01-30T15:02:03;101460.69;;;10.71;65.11
59409;BME280;45213;32.654;-115.458;2023-01-30T15:07:09;101467.47;;;11.10;63.38
59409;BME280;45213;32.654;-115.458;2023-01-30T15:09:38;101475.72;;;11.34;62.48
59409;BME280;45213;32.654;-115.458;2023-01-30T15:15:07;101493.16;;;10.90;62.82
59409;BME280;45213;32.654;-115.458;2023-01-30T15:17:59;101498.25;;;10.38;65.15
59409;BME280;45213;32.654;-115.458;2023-01-30T15:32:18;101500.44;;;10.21;68.07
59409;BME280;45213;32.654;-115.458;2023-01-30T15:50:53;101517.88;;;10.64;66.01
59409;BME280;45213;32.654;-115.458;2023-01-30T15:53:49;101533.50;;;10.64;66.54
59409;BME280;45213;32.654;-115.458;2023-01-30T15:56:23;101528.09;;;10.55;66.38